sensor_id;sensor_type;location;lat;lon;timestamp;P1;durP1;ratioP1;P2;durP2;ratioP2
18407;SDS011;9330;52.210;21.174;2023-12-04T00:01:25;28.92;;;20.00;;
18407;SDS011;9330;52.210;21.174;2023-12-04T00:03:52;29.35;;;20.27;;
18407;SDS011;9330;52.210;21.174;2023-12-04T00:06:19;28.15;;;19.75;;
18407;SDS011;9330;52.210;21.174;2023-12-04T00:08:47;29.70;;;19.02;;
18407;SDS011;9330;52.210;21.174;2023-12-04T00:11:13;28.33;;;20.25;;
18407;SDS011;9330;52.210;21.174;2023-12-04T00:13:40;29.63;;;20.33;;
18407;SDS011;9330;52.210;21.174;2023-12-04T00:16:07;29.85;;;19.08;;
18407;SDS011;9330;52.210;21.174;2023-12-04T00:18:36;29.25;;;19.88;;
18407;SDS011;9330;52.210;21.174;2023-12-04T00:21:03;29.55;;;20.00;;
18407;SDS011;9330;52.210;21.174;2023-12-04T00:23:30;30.58;;;20.52;;
18407;SDS011;9330;52.210;21.174;2023-12-04T00:25:57;28.80;;;19.35;;
18407;SDS011;9330;52.210;21.174;2023-12-04T00:28:24;29.92;;;20.23;;
18407;SDS011;9330;52.210;21.174;2023-12-04T00:30:51;33.45;;;21.90;;
18407;SDS011;9330;52.210;21.174;2023-12-04T00:33:18;31.95;;;20.83;;
18407;SDS011;9330;52.210;21.174;2023-12-04T00:35:46;29.65;;;19.77;;
18407;SDS011;9330;52.210;21.174;2023-12-04T00:38:13;25.63;;;18.63;;
18407;SDS011;9330;52.210;21.174;2023-12-04T00:40:39;31.67;;;18.63;;
18407;SDS011;9330;52.210;21.174;2023-12-04T00:43:06;29.23;;;19.40;;
18407;SDS011;9330;52.210;21.174;2023-12-04T00:45:33;28.90;;;20.20;;
18407;SDS011;9330;52.210;21.174;2023-12-04T00:48:00;29.30;;;18.95;;
18407;SDS011;9330;52.210;21.174;2023-12-04T00:50:28;28.63;;;19.38;;
18407;SDS011;9330;52.210;21.174;2023-12-04T00:52:56;28.50;;;19.10;;
18407;SDS011;9330;52.210;21.174;2023-12-04T00:55:23;30.30;;;20.30;;
18407;SDS011;9330;52.210;21.174;2023-12-04T00:57:49;28.15;;;19.98;;
18407;SDS011;9330;52.210;21.174;2023-12-04T01:00:16;28.15;;;19.77;;
18407;SDS011;9330;52.210;21.174;2023-12-04T01:02:43;26.60;;;19.38;;
18407;SDS011;9330;52.210;21.174;2023-12-04T01:05:09;30.20;;;20.30;;
18407;SDS011;9330;52.210;21.174;2023-12-04T01:07:36;29.00;;;20.40;;
18407;SDS011;9330;52.210;21.174;2023-12-04T01:10:05;31.13;;;21.23;;
18407;SDS011;9330;52.210;21.174;2023-12-04T01:12:32;27.70;;;19.35;;
18407;SDS011;9330;52.210;21.174;2023-12-04T01:15:00;32.13;;;20.85;;
18407;SDS011;9330;52.210;21.174;2023-12-04T01:17:28;32.28;;;21.83;;
18407;SDS011;9330;52.210;21.174;2023-12-04T01:19:55;35.63;;;23.00;;
18407;SDS011;9330;52.210;21.174;2023-12-04T01:22:22;32.38;;;21.48;;
18407;SDS011;9330;52.210;21.174;2023-12-04T01:24:49;30.27;;;21.48;;
18407;SDS011;9330;52.210;21.174;2023-12-04T01:27:17;30.40;;;21.40;;
18407;SDS011;9330;52.210;21.174;2023-12-04T01:29:44;31.23;;;21.48;;
18407;SDS011;9330;52.210;21.174;2023-12-04T01:32:11;33.50;;;22.60;;
18407;SDS011;9330;52.210;21.174;2023-12-04T01:34:38;37.30;;;24.35;;
18407;SDS011;9330;52.210;21.174;2023-12-04T01:37:05;32.92;;;21.90;;
18407;SDS011;9330;52.210;21.174;2023-12-04T01:39:31;34.38;;;22.45;;
18407;SDS011;9330;52.210;21.174;2023-12-04T01:41:58;37.65;;;24.92;;
18407;SDS011;9330;52.210;21.174;2023-12-04T01:44:26;37.45;;;23.50;;
18407;SDS011;9330;52.210;21.174;2023-12-04T01:46:53;34.78;;;22.58;;
18407;SDS011;9330;52.210;21.174;2023-12-04T01:49:21;31.83;;;21.40;;
18407;SDS011;9330;52.210;21.174;2023-12-04T01:51:48;31.55;;;21.95;;
18407;SDS011;9330;52.210;21.174;2023-12-04T01:54:15;35.17;;;22.63;;
18407;SDS011;9330;52.210;21.174;2023-12-04T01:56:42;29.65;;;21.10;;
18407;SDS011;9330;52.210;21.174;2023-12-04T01:59:10;28.58;;;21.08;;
18407;SDS011;9330;52.210;21.174;2023-12-04T02:01:38;28.95;;;20.35;;
18407;SDS011;9330;52.210;21.174;2023-12-04T02:04:06;29.83;;;20.38;;
18407;SDS011;9330;52.210;21.174;2023-12-04T02:06:33;28.70;;;20.42;;
18407;SDS011;9330;52.210;21.174;2023-12-04T02:09:01;25.75;;;19.35;;
18407;SDS011;9330;52.210;21.174;2023-12-04T02:11:28;25.80;;;18.85;;
18407;SDS011;9330;52.210;21.174;2023-12-04T02:13:55;25.35;;;17.73;;
18407;SDS011;9330;52.210;21.174;2023-12-04T02:16:22;25.20;;;18.02;;
18407;SDS011;9330;52.210;21.174;2023-12-04T02:18:52;23.65;;;17.88;;
18407;SDS011;9330;52.210;21.174;2023-12-04T02:21:19;23.58;;;17.50;;
18407;SDS011;9330;52.210;21.174;2023-12-04T02:23:49;24.30;;;17.63;;
18407;SDS011;9330;52.210;21.174;2023-12-04T02:26:16;24.45;;;17.88;;
18407;SDS011;9330;52.210;21.174;2023-12-04T02:28:45;25.27;;;18.05;;
18407;SDS011;9330;52.210;21.174;2023-12-04T02:31:20;23.52;;;15.70;;
18407;SDS011;9330;52.210;21.174;2023-12-04T02:33:49;22.20;;;15.95;;
18407;SDS011;9330;52.210;21.174;2023-12-04T02:36:21;22.27;;;15.73;;
18407;SDS011;9330;52.210;21.174;2023-12-04T02:38:51;20.10;;;15.25;;
18407;SDS011;9330;52.210;21.174;2023-12-04T02:41:19;19.27;;;14.63;;
18407;SDS011;9330;52.210;21.174;2023-12-04T02:43:46;21.60;;;15.53;;
18407;SDS011;9330;52.210;21.174;2023-12-04T02:46:13;21.67;;;15.13;;
18407;SDS011;9330;52.210;21.174;2023-12-04T02:48:39;20.58;;;14.90;;
18407;SDS011;9330;52.210;21.174;2023-12-04T02:51:06;17.98;;;14.05;;
18407;SDS011;9330;52.210;21.174;2023-12-04T02:53:33;17.40;;;13.23;;
18407;SDS011;9330;52.210;21.174;2023-12-04T02:56:01;19.23;;;14.82;;
18407;SDS011;9330;52.210;21.174;2023-12-04T02:58:28;19.92;;;14.73;;
18407;SDS011;9330;52.210;21.174;2023-12-04T03:00:55;20.13;;;13.57;;
18407;SDS011;9330;52.210;21.174;2023-12-04T03:03:22;20.48;;;14.18;;
18407;SDS011;9330;52.210;21.174;2023-12-04T03:05:49;17.92;;;12.98;;
18407;SDS011;9330;52.210;21.174;2023-12-04T03:08:16;18.38;;;13.25;;
18407;SDS011;9330;52.210;21.174;2023-12-04T03:10:43;18.13;;;12.70;;
18407;SDS011;9330;52.210;21.174;2023-12-04T03:13:11;17.05;;;12.27;;
18407;SDS011;9330;52.210;21.174;2023-12-04T03:15:37;17.80;;;12.15;;
18407;SDS011;9330;52.210;21.174;2023-12-04T03:18:04;15.95;;;11.65;;
18407;SDS011;9330;52.210;21.174;2023-12-04T03:20:31;17.35;;;12.38;;
18407;SDS011;9330;52.210;21.174;2023-12-04T03:22:58;16.55;;;11.70;;
18407;SDS011;9330;52.210;21.174;2023-12-04T03:25:25;17.50;;;12.60;;
18407;SDS011;9330;52.210;21.174;2023-12-04T03:27:52;15.40;;;11.77;;
18407;SDS011;9330;52.210;21.174;2023-12-04T03:30:20;16.63;;;11.50;;
18407;SDS011;9330;52.210;21.174;2023-12-04T03:32:47;16.08;;;11.52;;
18407;SDS011;9330;52.210;21.174;2023-12-04T03:35:14;17.98;;;12.55;;
18407;SDS011;9330;52.210;21.174;2023-12-04T03:37:40;17.67;;;11.55;;
18407;SDS011;9330;52.210;21.174;2023-12-04T03:40:08;15.80;;;11.70;;
18407;SDS011;9330;52.210;21.174;2023-12-04T03:42:35;19.55;;;12.65;;
18407;SDS011;9330;52.210;21.174;2023-12-04T03:45:02;18.23;;;13.10;;
18407;SDS011;9330;52.210;21.174;2023-12-04T03:47:30;18.33;;;12.27;;
18407;SDS011;9330;52.210;21.174;2023-12-04T03:49:57;17.75;;;13.02;;
18407;SDS011;9330;52.210;21.174;2023-12-04T03:52:24;18.02;;;12.82;;
18407;SDS011;9330;52.210;21.174;2023-12-04T03:54:51;16.80;;;13.20;;
18407;SDS011;9330;52.210;21.174;2023-12-04T03:57:18;17.73;;;13.50;;
18407;SDS011;9330;52.210;21.174;2023-12-04T03:59:44;19.67;;;13.18;;
18407;SDS011;9330;52.210;21.174;2023-12-04T04:02:11;22.10;;;14.25;;
18407;SDS011;9330;52.210;21.174;2023-12-04T04:04:39;19.65;;;13.85;;
18407;SDS011;9330;52.210;21.174;2023-12-04T04:07:06;20.67;;;13.60;;
18407;SDS011;9330;52.210;21.174;2023-12-04T04:09:33;18.75;;;13.02;;
18407;SDS011;9330;52.210;21.174;2023-12-04T04:12:00;19.08;;;13.05;;
18407;SDS011;9330;52.210;21.174;2023-12-04T04:14:27;20.35;;;14.18;;
18407;SDS011;9330;52.210;21.174;2023-12-04T04:16:53;19.42;;;13.70;;
18407;SDS011;9330;52.210;21.174;2023-12-04T04:19:20;22.70;;;14.57;;
18407;SDS011;9330;52.210;21.174;2023-12-04T04:21:48;21.48;;;14.40;;
18407;SDS011;9330;52.210;21.174;2023-12-04T04:24:15;20.35;;;14.52;;
18407;SDS011;9330;52.210;21.174;2023-12-04T04:26:42;19.10;;;14.27;;
18407;SDS011;9330;52.210;21.174;2023-12-04T04:29:09;18.17;;;13.63;;
18407;SDS011;9330;52.210;21.174;2023-12-04T04:31:35;22.83;;;15.82;;
18407;SDS011;9330;52.210;21.174;2023-12-04T04:34:02;20.25;;;13.68;;
18407;SDS011;9330;52.210;21.174;2023-12-04T04:36:29;20.00;;;14.50;;
18407;SDS011;9330;52.210;21.174;2023-12-04T04:38:57;24.77;;;15.48;;
18407;SDS011;9330;52.210;21.174;2023-12-04T04:41:24;25.13;;;15.95;;
18407;SDS011;9330;52.210;21.174;2023-12-04T04:43:51;22.83;;;16.38;;
18407;SDS011;9330;52.210;21.174;2023-12-04T04:46:18;22.10;;;15.27;;
18407;SDS011;9330;52.210;21.174;2023-12-04T04:48:45;26.15;;;15.88;;
18407;SDS011;9330;52.210;21.174;2023-12-04T04:51:12;21.53;;;15.90;;
18407;SDS011;9330;52.210;21.174;2023-12-04T04:53:39;22.98;;;15.55;;
18407;SDS011;9330;52.210;21.174;2023-12-04T04:56:08;22.33;;;15.35;;
18407;SDS011;9330;52.210;21.174;2023-12-04T04:58:35;25.02;;;16.50;;
18407;SDS011;9330;52.210;21.174;2023-12-04T05:01:02;23.88;;;15.95;;
18407;SDS011;9330;52.210;21.174;2023-12-04T05:03:30;22.52;;;15.68;;
18407;SDS011;9330;52.210;21.174;2023-12-04T05:05:56;23.63;;;16.52;;
18407;SDS011;9330;52.210;21.174;2023-12-04T05:08:23;25.25;;;16.10;;
18407;SDS011;9330;52.210;21.174;2023-12-04T05:10:50;24.70;;;16.50;;
18407;SDS011;9330;52.210;21.174;2023-12-04T05:13:19;22.42;;;15.30;;
18407;SDS011;9330;52.210;21.174;2023-12-04T05:15:45;21.85;;;14.32;;
18407;SDS011;9330;52.210;21.174;2023-12-04T05:18:12;22.42;;;15.82;;
18407;SDS011;9330;52.210;21.174;2023-12-04T05:20:39;23.55;;;15.73;;
18407;SDS011;9330;52.210;21.174;2023-12-04T05:23:06;23.13;;;16.90;;
18407;SDS011;9330;52.210;21.174;2023-12-04T05:25:33;23.05;;;15.32;;
18407;SDS011;9330;52.210;21.174;2023-12-04T05:27:59;21.98;;;15.00;;
18407;SDS011;9330;52.210;21.174;2023-12-04T05:30:28;22.48;;;15.40;;
18407;SDS011;9330;52.210;21.174;2023-12-04T05:32:54;22.77;;;16.00;;
18407;SDS011;9330;52.210;21.174;2023-12-04T05:35:21;21.80;;;14.77;;
18407;SDS011;9330;52.210;21.174;2023-12-04T05:37:48;22.85;;;15.65;;
18407;SDS011;9330;52.210;21.174;2023-12-04T05:40:15;23.48;;;16.25;;
18407;SDS011;9330;52.210;21.174;2023-12-04T05:42:42;23.05;;;15.82;;
18407;SDS011;9330;52.210;21.174;2023-12-04T05:45:09;23.77;;;16.42;;
18407;SDS011;9330;52.210;21.174;2023-12-04T05:47:37;22.45;;;16.40;;
18407;SDS011;9330;52.210;21.174;2023-12-04T05:50:04;24.77;;;15.98;;
18407;SDS011;9330;52.210;21.174;2023-12-04T05:52:32;22.70;;;16.00;;
18407;SDS011;9330;52.210;21.174;2023-12-04T05:54:59;24.55;;;16.67;;
18407;SDS011;9330;52.210;21.174;2023-12-04T05:57:26;24.73;;;17.35;;
18407;SDS011;9330;52.210;21.174;2023-12-04T05:59:52;25.23;;;16.30;;
18407;SDS011;9330;52.210;21.174;2023-12-04T06:02:19;21.98;;;15.75;;
18407;SDS011;9330;52.210;21.174;2023-12-04T06:04:48;23.92;;;16.27;;
18407;SDS011;9330;52.210;21.174;2023-12-04T06:07:14;27.63;;;16.83;;
18407;SDS011;9330;52.210;21.174;2023-12-04T06:09:41;24.40;;;16.98;;
18407;SDS011;9330;52.210;21.174;2023-12-04T06:12:08;21.63;;;15.18;;
18407;SDS011;9330;52.210;21.174;2023-12-04T06:14:35;24.58;;;16.17;;
18407;SDS011;9330;52.210;21.174;2023-12-04T06:17:02;23.17;;;16.45;;
18407;SDS011;9330;52.210;21.174;2023-12-04T06:19:30;26.08;;;16.13;;
18407;SDS011;9330;52.210;21.174;2023-12-04T06:21:58;23.52;;;16.17;;
18407;SDS011;9330;52.210;21.174;2023-12-04T06:24:25;25.48;;;17.45;;
18407;SDS011;9330;52.210;21.174;2023-12-04T06:26:53;23.23;;;15.95;;
18407;SDS011;9330;52.210;21.174;2023-12-04T06:29:20;26.35;;;17.05;;
18407;SDS011;9330;52.210;21.174;2023-12-04T06:31:47;24.90;;;16.75;;
18407;SDS011;9330;52.210;21.174;2023-12-04T06:34:15;25.60;;;17.48;;
18407;SDS011;9330;52.210;21.174;2023-12-04T06:36:42;25.83;;;18.02;;
18407;SDS011;9330;52.210;21.174;2023-12-04T06:39:11;29.65;;;17.90;;
18407;SDS011;9330;52.210;21.174;2023-12-04T06:41:38;23.67;;;17.05;;
18407;SDS011;9330;52.210;21.174;2023-12-04T06:44:06;23.60;;;17.10;;
18407;SDS011;9330;52.210;21.174;2023-12-04T06:46:34;24.30;;;16.70;;
18407;SDS011;9330;52.210;21.174;2023-12-04T06:49:04;25.95;;;17.13;;
18407;SDS011;9330;52.210;21.174;2023-12-04T06:51:31;26.30;;;17.33;;
18407;SDS011;9330;52.210;21.174;2023-12-04T06:53:58;27.45;;;18.30;;
18407;SDS011;9330;52.210;21.174;2023-12-04T06:56:26;25.42;;;17.90;;
18407;SDS011;9330;52.210;21.174;2023-12-04T06:58:53;29.83;;;18.13;;
18407;SDS011;9330;52.210;21.174;2023-12-04T07:01:20;28.52;;;18.65;;
18407;SDS011;9330;52.210;21.174;2023-12-04T07:03:47;31.92;;;19.85;;
18407;SDS011;9330;52.210;21.174;2023-12-04T07:06:14;29.00;;;19.13;;
18407;SDS011;9330;52.210;21.174;2023-12-04T07:08:41;27.45;;;18.17;;
18407;SDS011;9330;52.210;21.174;2023-12-04T07:11:08;29.02;;;19.50;;
18407;SDS011;9330;52.210;21.174;2023-12-04T07:13:36;28.30;;;19.15;;
18407;SDS011;9330;52.210;21.174;2023-12-04T07:16:03;31.50;;;20.15;;
18407;SDS011;9330;52.210;21.174;2023-12-04T07:18:31;27.08;;;17.48;;
18407;SDS011;9330;52.210;21.174;2023-12-04T07:20:58;29.27;;;19.65;;
18407;SDS011;9330;52.210;21.174;2023-12-04T07:23:24;29.35;;;19.20;;
18407;SDS011;9330;52.210;21.174;2023-12-04T07:25:51;28.75;;;18.70;;
18407;SDS011;9330;52.210;21.174;2023-12-04T07:28:18;28.42;;;19.60;;
18407;SDS011;9330;52.210;21.174;2023-12-04T07:30:46;29.08;;;19.50;;
18407;SDS011;9330;52.210;21.174;2023-12-04T07:33:13;28.53;;;19.00;;
18407;SDS011;9330;52.210;21.174;2023-12-04T07:35:40;30.30;;;19.55;;
18407;SDS011;9330;52.210;21.174;2023-12-04T07:38:07;28.90;;;18.88;;
18407;SDS011;9330;52.210;21.174;2023-12-04T07:40:33;28.33;;;19.42;;
18407;SDS011;9330;52.210;21.174;2023-12-04T07:43:00;32.25;;;21.67;;
18407;SDS011;9330;52.210;21.174;2023-12-04T07:45:27;33.78;;;19.73;;
18407;SDS011;9330;52.210;21.174;2023-12-04T07:47:55;31.55;;;20.33;;
18407;SDS011;9330;52.210;21.174;2023-12-04T07:50:22;30.80;;;18.80;;
18407;SDS011;9330;52.210;21.174;2023-12-04T07:52:50;31.88;;;19.33;;
18407;SDS011;9330;52.210;21.174;2023-12-04T07:55:17;30.48;;;19.92;;
18407;SDS011;9330;52.210;21.174;2023-12-04T07:57:44;27.08;;;19.08;;
18407;SDS011;9330;52.210;21.174;2023-12-04T08:00:12;30.38;;;19.67;;
18407;SDS011;9330;52.210;21.174;2023-12-04T08:02:40;30.52;;;19.60;;
18407;SDS011;9330;52.210;21.174;2023-12-04T08:05:11;32.13;;;20.23;;
18407;SDS011;9330;52.210;21.174;2023-12-04T08:07:38;29.77;;;19.42;;
18407;SDS011;9330;52.210;21.174;2023-12-04T08:10:05;31.05;;;21.00;;
18407;SDS011;9330;52.210;21.174;2023-12-04T08:12:33;34.72;;;21.73;;
18407;SDS011;9330;52.210;21.174;2023-12-04T08:15:00;33.53;;;20.42;;
18407;SDS011;9330;52.210;21.174;2023-12-04T08:17:29;31.17;;;20.10;;
18407;SDS011;9330;52.210;21.174;2023-12-04T08:19:55;31.63;;;20.40;;
18407;SDS011;9330;52.210;21.174;2023-12-04T08:22:23;28.20;;;19.48;;
18407;SDS011;9330;52.210;21.174;2023-12-04T08:24:50;31.45;;;20.40;;
18407;SDS011;9330;52.210;21.174;2023-12-04T08:27:18;30.48;;;19.25;;
18407;SDS011;9330;52.210;21.174;2023-12-04T08:29:45;30.05;;;19.58;;
18407;SDS011;9330;52.210;21.174;2023-12-04T08:32:12;31.25;;;20.33;;
18407;SDS011;9330;52.210;21.174;2023-12-04T08:34:38;29.63;;;19.83;;
18407;SDS011;9330;52.210;21.174;2023-12-04T08:37:05;30.95;;;20.17;;
18407;SDS011;9330;52.210;21.174;2023-12-04T08:39:33;31.58;;;19.50;;
18407;SDS011;9330;52.210;21.174;2023-12-04T08:42:00;30.67;;;20.13;;
18407;SDS011;9330;52.210;21.174;2023-12-04T08:44:27;30.45;;;19.45;;
18407;SDS011;9330;52.210;21.174;2023-12-04T08:46:54;29.25;;;18.85;;
18407;SDS011;9330;52.210;21.174;2023-12-04T08:49:22;25.85;;;17.45;;
18407;SDS011;9330;52.210;21.174;2023-12-04T08:51:50;27.50;;;18.67;;
18407;SDS011;9330;52.210;21.174;2023-12-04T08:54:17;26.58;;;17.80;;
18407;SDS011;9330;52.210;21.174;2023-12-04T08:56:46;26.08;;;16.92;;
18407;SDS011;9330;52.210;21.174;2023-12-04T08:59:12;26.40;;;17.98;;
18407;SDS011;9330;52.210;21.174;2023-12-04T09:01:39;26.15;;;17.42;;
18407;SDS011;9330;52.210;21.174;2023-12-04T09:04:07;28.33;;;16.92;;
18407;SDS011;9330;52.210;21.174;2023-12-04T09:06:34;27.75;;;17.52;;
18407;SDS011;9330;52.210;21.174;2023-12-04T09:09:01;26.40;;;16.80;;
18407;SDS011;9330;52.210;21.174;2023-12-04T09:11:28;26.35;;;17.70;;
18407;SDS011;9330;52.210;21.174;2023-12-04T09:13:56;27.75;;;17.35;;
18407;SDS011;9330;52.210;21.174;2023-12-04T09:16:23;27.40;;;17.58;;
18407;SDS011;9330;52.210;21.174;2023-12-04T09:18:50;26.02;;;17.45;;
18407;SDS011;9330;52.210;21.174;2023-12-04T09:21:18;27.80;;;17.33;;
18407;SDS011;9330;52.210;21.174;2023-12-04T09:23:45;27.85;;;17.15;;
18407;SDS011;9330;52.210;21.174;2023-12-04T09:26:14;27.95;;;18.60;;
18407;SDS011;9330;52.210;21.174;2023-12-04T09:28:41;25.15;;;17.10;;
18407;SDS011;9330;52.210;21.174;2023-12-04T09:31:09;26.33;;;16.95;;
18407;SDS011;9330;52.210;21.174;2023-12-04T09:33:36;28.92;;;17.67;;
18407;SDS011;9330;52.210;21.174;2023-12-04T09:36:03;28.42;;;18.70;;
18407;SDS011;9330;52.210;21.174;2023-12-04T09:38:30;29.52;;;18.65;;
18407;SDS011;9330;52.210;21.174;2023-12-04T09:40:58;31.88;;;20.30;;
18407;SDS011;9330;52.210;21.174;2023-12-04T09:43:26;32.72;;;20.10;;
18407;SDS011;9330;52.210;21.174;2023-12-04T09:45:56;25.88;;;17.95;;
18407;SDS011;9330;52.210;21.174;2023-12-04T09:48:24;27.30;;;18.23;;
18407;SDS011;9330;52.210;21.174;2023-12-04T09:50:52;26.55;;;17.80;;
18407;SDS011;9330;52.210;21.174;2023-12-04T09:53:19;31.45;;;19.02;;
18407;SDS011;9330;52.210;21.174;2023-12-04T09:55:47;29.92;;;18.67;;
18407;SDS011;9330;52.210;21.174;2023-12-04T09:58:15;27.25;;;18.30;;
18407;SDS011;9330;52.210;21.174;2023-12-04T10:00:46;28.63;;;18.67;;
18407;SDS011;9330;52.210;21.174;2023-12-04T10:03:13;29.70;;;19.35;;
18407;SDS011;9330;52.210;21.174;2023-12-04T10:05:42;32.35;;;19.25;;
18407;SDS011;9330;52.210;21.174;2023-12-04T10:08:10;26.65;;;17.83;;
18407;SDS011;9330;52.210;21.174;2023-12-04T10:10:37;25.65;;;17.60;;
18407;SDS011;9330;52.210;21.174;2023-12-04T10:13:04;25.17;;;16.48;;
18407;SDS011;9330;52.210;21.174;2023-12-04T10:15:31;24.40;;;16.92;;
18407;SDS011;9330;52.210;21.174;2023-12-04T10:17:58;23.30;;;15.00;;
18407;SDS011;9330;52.210;21.174;2023-12-04T10:20:25;25.67;;;16.73;;
18407;SDS011;9330;52.210;21.174;2023-12-04T10:22:55;26.35;;;17.35;;
18407;SDS011;9330;52.210;21.174;2023-12-04T10:25:22;24.83;;;16.27;;
18407;SDS011;9330;52.210;21.174;2023-12-04T10:27:50;26.00;;;17.55;;
18407;SDS011;9330;52.210;21.174;2023-12-04T10:30:22;25.55;;;16.67;;
18407;SDS011;9330;52.210;21.174;2023-12-04T10:32:56;28.90;;;18.08;;
18407;SDS011;9330;52.210;21.174;2023-12-04T10:35:25;24.70;;;16.75;;
18407;SDS011;9330;52.210;21.174;2023-12-04T10:37:55;30.08;;;17.95;;
18407;SDS011;9330;52.210;21.174;2023-12-04T10:40:23;26.77;;;18.00;;
18407;SDS011;9330;52.210;21.174;2023-12-04T10:42:50;28.40;;;18.73;;
18407;SDS011;9330;52.210;21.174;2023-12-04T10:45:17;26.92;;;18.80;;
18407;SDS011;9330;52.210;21.174;2023-12-04T10:47:47;32.42;;;17.95;;
18407;SDS011;9330;52.210;21.174;2023-12-04T10:50:16;27.55;;;17.90;;
18407;SDS011;9330;52.210;21.174;2023-12-04T10:52:43;28.88;;;18.67;;
18407;SDS011;9330;52.210;21.174;2023-12-04T10:55:13;30.67;;;19.50;;
18407;SDS011;9330;52.210;21.174;2023-12-04T10:57:40;30.42;;;19.08;;
18407;SDS011;9330;52.210;21.174;2023-12-04T11:00:12;28.30;;;18.15;;
18407;SDS011;9330;52.210;21.174;2023-12-04T11:02:42;30.30;;;18.85;;
18407;SDS011;9330;52.210;21.174;2023-12-04T11:05:12;28.88;;;17.58;;
18407;SDS011;9330;52.210;21.174;2023-12-04T11:07:44;28.90;;;17.92;;
18407;SDS011;9330;52.210;21.174;2023-12-04T11:10:15;29.75;;;17.60;;
18407;SDS011;9330;52.210;21.174;2023-12-04T11:12:44;29.65;;;18.02;;
18407;SDS011;9330;52.210;21.174;2023-12-04T11:15:14;30.77;;;18.67;;
18407;SDS011;9330;52.210;21.174;2023-12-04T11:17:44;31.67;;;18.80;;
18407;SDS011;9330;52.210;21.174;2023-12-04T11:20:16;28.15;;;17.67;;
18407;SDS011;9330;52.210;21.174;2023-12-04T11:22:45;31.45;;;18.00;;
18407;SDS011;9330;52.210;21.174;2023-12-04T11:25:13;30.60;;;18.48;;
18407;SDS011;9330;52.210;21.174;2023-12-04T11:27:42;26.85;;;17.25;;
18407;SDS011;9330;52.210;21.174;2023-12-04T11:30:09;27.98;;;18.33;;
18407;SDS011;9330;52.210;21.174;2023-12-04T11:32:43;30.17;;;18.02;;
18407;SDS011;9330;52.210;21.174;2023-12-04T11:35:12;27.38;;;18.25;;
18407;SDS011;9330;52.210;21.174;2023-12-04T11:37:40;27.38;;;17.80;;
18407;SDS011;9330;52.210;21.174;2023-12-04T11:40:10;28.38;;;17.73;;
18407;SDS011;9330;52.210;21.174;2023-12-04T11:42:40;27.67;;;17.65;;
18407;SDS011;9330;52.210;21.174;2023-12-04T11:45:07;31.10;;;19.27;;
18407;SDS011;9330;52.210;21.174;2023-12-04T11:50:26;34.92;;;19.92;;
18407;SDS011;9330;52.210;21.174;2023-12-04T11:52:53;33.22;;;20.23;;
18407;SDS011;9330;52.210;21.174;2023-12-04T11:55:21;34.63;;;20.25;;
18407;SDS011;9330;52.210;21.174;2023-12-04T11:57:50;55.63;;;22.50;;
18407;SDS011;9330;52.210;21.174;2023-12-04T12:00:21;38.17;;;19.65;;
18407;SDS011;9330;52.210;21.174;2023-12-04T12:03:02;38.17;;;19.83;;
18407;SDS011;9330;52.210;21.174;2023-12-04T12:05:31;38.00;;;19.52;;
18407;SDS011;9330;52.210;21.174;2023-12-04T12:08:00;31.80;;;18.00;;
18407;SDS011;9330;52.210;21.174;2023-12-04T12:10:28;30.65;;;18.65;;
18407;SDS011;9330;52.210;21.174;2023-12-04T12:12:56;37.88;;;20.10;;
18407;SDS011;9330;52.210;21.174;2023-12-04T12:15:23;41.20;;;20.13;;
18407;SDS011;9330;52.210;21.174;2023-12-04T12:17:50;41.20;;;19.20;;
18407;SDS011;9330;52.210;21.174;2023-12-04T12:20:18;32.85;;;18.38;;
18407;SDS011;9330;52.210;21.174;2023-12-04T12:22:45;31.52;;;17.27;;
18407;SDS011;9330;52.210;21.174;2023-12-04T12:25:14;30.42;;;16.75;;
18407;SDS011;9330;52.210;21.174;2023-12-04T12:27:41;26.50;;;16.80;;
18407;SDS011;9330;52.210;21.174;2023-12-04T12:30:10;26.38;;;16.98;;
18407;SDS011;9330;52.210;21.174;2023-12-04T12:32:37;26.30;;;15.93;;
18407;SDS011;9330;52.210;21.174;2023-12-04T12:35:04;27.05;;;17.55;;
18407;SDS011;9330;52.210;21.174;2023-12-04T12:37:33;35.30;;;18.50;;
18407;SDS011;9330;52.210;21.174;2023-12-04T12:40:01;41.90;;;18.58;;
18407;SDS011;9330;52.210;21.174;2023-12-04T12:42:29;33.70;;;16.70;;
18407;SDS011;9330;52.210;21.174;2023-12-04T12:44:59;30.30;;;17.05;;
18407;SDS011;9330;52.210;21.174;2023-12-04T12:47:29;31.45;;;16.23;;
18407;SDS011;9330;52.210;21.174;2023-12-04T12:49:56;32.40;;;18.05;;
18407;SDS011;9330;52.210;21.174;2023-12-04T12:52:22;31.58;;;17.05;;
18407;SDS011;9330;52.210;21.174;2023-12-04T12:54:49;26.50;;;16.45;;
18407;SDS011;9330;52.210;21.174;2023-12-04T12:57:18;25.70;;;16.20;;
18407;SDS011;9330;52.210;21.174;2023-12-04T12:59:44;24.30;;;15.93;;
18407;SDS011;9330;52.210;21.174;2023-12-04T13:02:11;29.00;;;16.58;;
18407;SDS011;9330;52.210;21.174;2023-12-04T13:04:41;30.42;;;16.95;;
18407;SDS011;9330;52.210;21.174;2023-12-04T13:07:08;29.08;;;17.10;;
18407;SDS011;9330;52.210;21.174;2023-12-04T13:09:36;26.27;;;16.40;;
18407;SDS011;9330;52.210;21.174;2023-12-04T13:12:06;25.73;;;16.65;;
18407;SDS011;9330;52.210;21.174;2023-12-04T13:14:35;24.20;;;15.80;;
18407;SDS011;9330;52.210;21.174;2023-12-04T13:17:02;25.13;;;15.27;;
18407;SDS011;9330;52.210;21.174;2023-12-04T13:19:31;27.80;;;16.15;;
18407;SDS011;9330;52.210;21.174;2023-12-04T13:22:00;34.38;;;16.27;;
18407;SDS011;9330;52.210;21.174;2023-12-04T13:24:29;33.20;;;17.27;;
18407;SDS011;9330;52.210;21.174;2023-12-04T13:26:56;28.05;;;15.82;;
18407;SDS011;9330;52.210;21.174;2023-12-04T13:29:22;25.33;;;15.32;;
18407;SDS011;9330;52.210;21.174;2023-12-04T13:31:49;33.30;;;17.13;;
18407;SDS011;9330;52.210;21.174;2023-12-04T13:34:16;28.55;;;16.20;;
18407;SDS011;9330;52.210;21.174;2023-12-04T13:36:43;37.92;;;16.58;;
18407;SDS011;9330;52.210;21.174;2023-12-04T13:39:12;30.83;;;17.50;;
18407;SDS011;9330;52.210;21.174;2023-12-04T13:41:45;29.50;;;15.88;;
18407;SDS011;9330;52.210;21.174;2023-12-04T13:44:30;22.23;;;14.15;;
18407;SDS011;9330;52.210;21.174;2023-12-04T13:46:58;24.38;;;14.65;;
18407;SDS011;9330;52.210;21.174;2023-12-04T13:49:25;24.83;;;14.93;;
18407;SDS011;9330;52.210;21.174;2023-12-04T13:51:52;27.52;;;16.50;;
18407;SDS011;9330;52.210;21.174;2023-12-04T13:54:20;27.35;;;15.98;;
18407;SDS011;9330;52.210;21.174;2023-12-04T13:56:57;31.95;;;16.38;;
18407;SDS011;9330;52.210;21.174;2023-12-04T13:59:25;26.65;;;16.27;;
18407;SDS011;9330;52.210;21.174;2023-12-04T14:01:52;28.95;;;16.75;;
18407;SDS011;9330;52.210;21.174;2023-12-04T14:04:19;24.08;;;15.52;;
18407;SDS011;9330;52.210;21.174;2023-12-04T14:06:48;25.23;;;15.93;;
18407;SDS011;9330;52.210;21.174;2023-12-04T14:09:15;54.55;;;18.27;;
18407;SDS011;9330;52.210;21.174;2023-12-04T14:11:44;52.90;;;19.10;;
18407;SDS011;9330;52.210;21.174;2023-12-04T14:14:11;48.03;;;18.52;;
18407;SDS011;9330;52.210;21.174;2023-12-04T14:16:38;29.05;;;15.75;;
18407;SDS011;9330;52.210;21.174;2023-12-04T14:19:06;30.25;;;16.63;;
18407;SDS011;9330;52.210;21.174;2023-12-04T14:21:32;24.98;;;15.88;;
18407;SDS011;9330;52.210;21.174;2023-12-04T14:23:59;26.48;;;15.73;;
18407;SDS011;9330;52.210;21.174;2023-12-04T14:26:26;33.00;;;17.52;;